Time;durP1;ratioP1;P1;durP2;ratioP2;P2;SDS_P1;SDS_P2;PMS_P1;PMS_P2;Temp;Humidity;BMP_temperature;BMP_pressure;BME280_temperature;BME280_humidity;BME280_pressure;Samples;Min_cycle;Max_cycle;Signal;HPM_P1;HPM_P2
2021/09/11 00:09:13;;;;;;;1.20;0.47;;;20.80;99.90;;;;;;20699841;28;20234;-68
2021/09/11 00:19:18;;;;;;;0.57;0.47;;;20.80;99.90;;;;;;20691366;28;20207;-69
2021/09/11 00:29:22;;;;;;;0.33;0.33;;;20.80;99.90;;;;;;20620393;28;20235;-69
2021/09/11 00:39:27;;;;;;;0.20;0.10;;;20.80;99.90;;;;;;20616865;28;20589;-69
2021/09/11 00:49:30;;;;;;;0.40;0.40;;;20.80;99.90;;;;;;20630322;28;20231;-69
2021/09/11 00:59:35;;;;;;;0.30;0.30;;;20.80;99.90;;;;;;20618210;28;20207;-69
2021/09/11 01:09:39;;;;;;;0.33;0.33;;;20.80;99.90;;;;;;20618662;28;20230;-70
2021/09/11 01:19:44;;;;;;;0.20;0.20;;;20.80;99.90;;;;;;20629041;28;20198;-70
2021/09/11 01:29:54;;;;;;;0.67;0.57;;;20.80;99.90;;;;;;20698420;28;20223;-69
2021/09/11 01:39:58;;;;;;;0.43;0.20;;;20.80;99.90;;;;;;20696789;28;20197;-69
2021/09/11 01:50:04;;;;;;;0.30;0.30;;;20.70;99.90;;;;;;20697525;28;20229;-70
2021/09/11 02:00:09;;;;;;;0.40;0.40;;;20.30;99.90;;;;;;20706772;28;20239;-68
2021/09/11 02:10:17;;;;;;;0.50;0.43;;;20.10;99.90;;;;;;20705788;28;20683;-69
2021/09/11 02:20:21;;;;;;;0.20;0.10;;;20.30;99.90;;;;;;20691079;28;20201;-69
2021/09/11 02:30:26;;;;;;;0.43;0.43;;;20.10;99.90;;;;;;20628198;28;20227;-69
2021/09/11 02:40:30;;;;;;;0.73;0.63;;;20.20;99.90;;;;;;20627485;28;20599;-68
2021/09/11 02:50:35;;;;;;;0.53;0.53;;;20.50;99.90;;;;;;20625528;28;20704;-70
2021/09/11 03:00:39;;;;;;;1.87;0.63;;;20.40;99.90;;;;;;20627819;28;20243;-70
2021/09/11 03:10:44;;;;;;;3.80;0.87;;;20.60;99.90;;;;;;20623246;28;20238;-70
2021/09/11 03:20:48;;;;;;;0.20;0.17;;;20.50;99.90;;;;;;20646853;28;20206;-69
2021/09/11 03:30:52;;;;;;;0.40;0.30;;;20.40;99.90;;;;;;20704229;28;20230;-70
2021/09/11 03:40:56;;;;;;;0.20;0.10;;;20.50;99.90;;;;;;20702793;28;20194;-71
2021/09/11 03:51:02;;;;;;;0.27;0.27;;;20.60;99.90;;;;;;20702231;28;20463;-70
2021/09/11 04:01:05;;;;;;;0.20;0.10;;;20.70;99.90;;;;;;20703887;28;20226;-68
2021/09/11 04:11:11;;;;;;;0.50;0.30;;;20.60;99.90;;;;;;20701229;28;20227;-67
2021/09/11 04:21:14;;;;;;;0.90;0.40;;;20.50;99.90;;;;;;20674538;28;20653;-69
2021/09/11 04:31:19;;;;;;;0.20;0.00;;;20.60;99.90;;;;;;20619377;28;20223;-68
2021/09/11 04:41:22;;;;;;;0.60;0.50;;;20.60;99.90;;;;;;20619324;28;20249;-69
2021/09/11 04:51:27;;;;;;;0.70;0.63;;;20.40;99.90;;;;;;20617815;28;20711;-67
2021/09/11 05:01:31;;;;;;;0.20;0.10;;;20.40;99.90;;;;;;20616255;28;20298;-69
2021/09/11 05:11:37;;;;;;;0.43;0.37;;;20.40;99.90;;;;;;20616737;28;20264;-69
2021/09/11 05:21:41;;;;;;;0.23;0.20;;;20.20;99.90;;;;;;20644737;28;20195;-70
2021/09/11 05:31:45;;;;;;;1.03;0.70;;;20.10;99.90;;;;;;20702101;28;20695;-69
2021/09/11 05:41:49;;;;;;;0.33;0.33;;;20.10;99.90;;;;;;20711432;28;20461;-70
2021/09/11 05:51:54;;;;;;;1.40;0.40;;;20.20;99.90;;;;;;20695810;28;20475;-69
2021/09/11 06:01:58;;;;;;;0.20;0.13;;;20.30;99.90;;;;;;20709160;28;20230;-70
2021/09/11 06:12:05;;;;;;;1.60;0.63;;;20.40;99.90;;;;;;20711535;28;20285;-70
2021/09/11 06:22:10;;;;;;;2.77;0.63;;;20.70;99.90;;;;;;20674518;28;20195;-70
2021/09/11 06:32:15;;;;;;;1.33;0.87;;;21.00;99.90;;;;;;20626886;28;20234;-69
2021/09/11 06:42:20;;;;;;;0.57;0.57;;;21.30;99.90;;;;;;20626326;28;20215;-70
2021/09/11 06:52:25;;;;;;;0.40;0.40;;;21.40;99.90;;;;;;20624678;28;20731;-70
2021/09/11 07:02:28;;;;;;;0.50;0.40;;;21.80;99.90;;;;;;20625033;28;20232;-70
2021/09/11 07:12:34;;;;;;;0.40;0.40;;;22.20;99.90;;;;;;20623758;28;20612;-68
2021/09/11 07:22:37;;;;;;;1.50;0.90;;;22.70;99.90;;;;;;20659312;28;20195;-69
2021/09/11 07:32:42;;;;;;;1.00;0.90;;;23.30;99.90;;;;;;20703290;28;20225;-69
2021/09/11 07:42:46;;;;;;;0.20;0.10;;;23.90;99.90;;;;;;20702973;28;20206;-67
2021/09/11 07:52:51;;;;;;;0.73;0.68;;;23.90;99.90;;;;;;20656706;28;20294;-69
2021/09/11 08:02:55;;;;;;;1.05;0.40;;;23.90;99.90;;;;;;20618577;28;20227;-68
2021/09/11 08:13:01;;;;;;;0.75;0.40;;;24.20;99.90;;;;;;20617820;28;20226;-69
2021/09/11 08:23:05;;;;;;;0.30;0.30;;;24.30;99.90;;;;;;20658861;28;20195;-68
2021/09/11 08:33:11;;;;;;;0.32;0.30;;;24.50;99.90;;;;;;20695783;28;20230;-70
2021/09/11 08:43:17;;;;;;;0.52;0.30;;;24.60;99.90;;;;;;20697792;28;20195;-66
2021/09/11 08:53:22;;;;;;;1.73;1.02;;;24.60;99.90;;;;;;20689177;28;20222;-67
2021/09/11 09:03:35;;;;;;;1.13;0.57;;;25.00;99.90;;;;;;20693183;28;20696;-68
2021/09/11 09:13:50;;;;;;;0.60;0.60;;;25.60;99.90;;;;;;20696072;28;20237;-69
2021/09/11 09:23:56;;;;;;;0.95;0.60;;;26.10;99.90;;;;;;20648267;28;20198;-67
2021/09/11 09:34:01;;;;;;;0.30;0.20;;;26.40;99.90;;;;;;20612491;28;20234;-67
2021/09/11 09:44:06;;;;;;;0.82;0.57;;;26.70;99.90;;;;;;20612547;28;20200;-68
2021/09/11 09:54:13;;;;;;;1.38;1.27;;;27.20;99.90;;;;;;20610309;28;20227;-67
2021/09/11 10:04:18;;;;;;;1.30;0.88;;;27.30;99.90;;;;;;20613126;28;20224;-69
2021/09/11 10:14:31;;;;;;;2.45;1.23;;;27.20;99.90;;;;;;20609132;28;20238;-69
2021/09/11 10:24:37;;;;;;;0.82;0.73;;;27.00;99.90;;;;;;20675121;28;20190;-67
2021/09/11 10:34:56;;;;;;;1.08;0.90;;;27.20;99.90;;;;;;20703371;28;20848;-71
2021/09/11 10:45:04;;;;;;;1.38;1.00;;;27.90;99.90;;;;;;20694543;28;20214;-69
2021/09/11 10:55:40;;;;;;;1.40;0.85;;;28.40;99.90;;;;;;20704547;28;20218;-68
2021/09/11 11:06:02;;;;;;;2.78;1.45;;;29.10;99.90;;;;;;20703730;28;20562;-69
2021/09/11 11:16:07;;;;;;;1.63;1.35;;;29.40;99.90;;;;;;20684919;28;20231;-69
2021/09/11 11:26:11;;;;;;;1.25;0.93;;;29.60;99.90;;;;;;20635908;28;20195;-68
2021/09/11 11:36:21;;;;;;;2.00;1.33;;;29.40;99.90;;;;;;20617210;28;20235;-68
2021/09/11 11:46:28;;;;;;;1.75;0.98;;;30.00;99.90;;;;;;20619840;28;20199;-70
2021/09/11 11:56:47;;;;;;;1.42;0.95;;;30.20;99.90;;;;;;20619194;28;20235;-68
2021/09/11 12:06:52;;;;;;;1.38;1.15;;;31.40;99.90;;;;;;20616944;28;20227;-67
2021/09/11 12:16:57;;;;;;;3.47;0.95;;;31.80;99.90;;;;;;20618312;28;20574;-68
2021/09/11 12:27:10;;;;;;;2.15;1.23;;;31.60;99.90;;;;;;20689435;28;20203;-68
2021/09/11 12:37:15;;;;;;;1.63;1.10;;;32.70;99.90;;;;;;20697139;28;20234;-68
2021/09/11 12:47:18;;;;;;;1.35;1.25;;;33.70;99.90;;;;;;20698239;28;20514;-67
2021/09/11 12:57:24;;;;;;;1.83;1.13;;;32.20;99.90;;;;;;20696483;28;20234;-69
2021/09/11 13:07:27;;;;;;;2.83;1.48;;;32.60;99.90;;;;;;20697500;28;20695;-71
2021/09/11 13:17:32;;;;;;;4.35;1.52;;;32.30;99.90;;;;;;20692460;28;20230;-70
2021/09/11 13:27:36;;;;;;;1.67;0.85;;;33.10;99.90;;;;;;20616844;28;20195;-73
2021/09/11 13:37:43;;;;;;;2.30;1.40;;;33.80;99.90;;;;;;20613515;28;20238;-77
2021/09/11 13:47:46;;;;;;;1.75;1.20;;;34.90;99.90;;;;;;20615591;28;20257;-79
2021/09/11 13:57:52;;;;;;;1.70;1.48;;;34.40;99.90;;;;;;20626889;28;20238;-78
2021/09/11 14:07:55;;;;;;;3.97;2.83;;;32.70;99.90;;;;;;20626606;28;20450;-68
2021/09/11 14:18:00;;;;;;;1.60;1.35;;;29.00;99.90;;;;;;20625204;28;20242;-67
2021/09/11 14:28:04;;;;;;;5.78;1.98;;;28.30;99.90;;;;;;20703207;28;20198;-66
2021/09/11 14:38:09;;;;;;;1.48;1.23;;;29.00;99.90;;;;;;20645565;28;20223;-67
2021/09/11 14:48:13;;;;;;;1.63;1.00;;;31.20;99.90;;;;;;20620619;28;20207;-65
2021/09/11 14:58:18;;;;;;;3.80;1.27;;;33.00;99.90;;;;;;20623200;28;20277;-67
2021/09/11 15:08:21;;;;;;;2.30;1.48;;;30.50;99.90;;;;;;20620921;28;20589;-67
2021/09/11 15:18:26;;;;;;;10.07;1.88;;;32.60;99.90;;;;;;20623974;28;20931;-66
2021/09/11 15:28:30;;;;;;;2.97;1.73;;;30.90;99.90;;;;;;20700241;28;20541;-66
2021/09/11 15:38:35;;;;;;;1.88;1.52;;;29.90;99.90;;;;;;20700061;28;20225;-64
2021/09/11 15:48:39;;;;;;;2.15;1.25;;;29.50;99.90;;;;;;20699422;28;20198;-67
2021/09/11 15:58:43;;;;;;;1.58;1.48;;;28.10;99.90;;;;;;20699106;28;20233;-67
2021/09/11 16:08:49;;;;;;;1.38;1.10;;;27.70;99.90;;;;;;20697991;28;20230;-67
2021/09/11 16:18:54;;;;;;;1.10;1.00;;;27.30;99.90;;;;;;20690351;28;20215;-67
2021/09/11 16:28:57;;;;;;;1.92;1.10;;;27.20;99.90;;;;;;20614210;28;20961;-68
2021/09/11 16:39:02;;;;;;;0.20;0.00;;;27.10;99.90;;;;;;20615636;28;20238;-66
2021/09/11 16:49:06;;;;;;;0.20;0.00;;;26.80;99.90;;;;;;20614815;28;20967;-66
2021/09/11 16:59:11;;;;;;;0.20;0.00;;;26.60;99.90;;;;;;20550956;28;20223;-70
2021/09/11 17:09:14;;;;;;;0.20;0.00;;;26.40;99.90;;;;;;20529712;28;20247;-71
2021/09/11 17:19:20;;;;;;;0.20;0.00;;;26.50;99.90;;;;;;20549870;28;20281;-68
2021/09/11 17:29:23;;;;;;;0.20;0.00;;;26.20;99.90;;;;;;20701023;28;20211;-68
2021/09/11 17:39:28;;;;;;;0.20;0.00;;;26.00;99.90;;;;;;20707794;28;20718;-72
2021/09/11 17:49:32;;;;;;;0.20;0.10;;;25.90;99.90;;;;;;20709503;28;20203;-70
2021/09/11 17:59:37;;;;;;;0.20;0.00;;;25.80;99.90;;;;;;20706134;28;20230;-70
2021/09/11 18:09:41;;;;;;;0.20;0.00;;;25.70;99.90;;;;;;20688931;28;20199;-71
2021/09/11 18:19:46;;;;;;;0.20;0.10;;;25.70;99.90;;;;;;20689454;28;20227;-71
2021/09/11 18:29:50;;;;;;;0.20;0.10;;;25.60;99.90;;;;;;20621757;28;20208;-71
2021/09/11 18:39:55;;;;;;;0.20;0.00;;;25.60;99.90;;;;;;20622617;28;20201;-72
2021/09/11 18:49:58;;;;;;;0.20;0.00;;;25.60;99.90;;;;;;20623184;28;20203;-72
2021/09/11 19:00:05;;;;;;;0.20;0.00;;;25.50;99.90;;;;;;20621329;28;20236;-71
2021/09/11 19:10:10;;;;;;;0.20;0.00;;;25.40;99.90;;;;;;20622155;28;20528;-70
2021/09/11 19:20:16;;;;;;;0.20;0.00;;;25.40;99.90;;;;;;20637279;28;20290;-70
2021/09/11 19:30:20;;;;;;;0.20;0.00;;;25.20;99.90;;;;;;20699288;28;20210;-70
2021/09/11 19:40:25;;;;;;;0.20;0.10;;;25.10;99.90;;;;;;20700800;28;20195;-72
2021/09/11 19:50:29;;;;;;;0.20;0.00;;;25.20;99.90;;;;;;20697385;28;20222;-71
2021/09/11 20:00:34;;;;;;;0.20;0.00;;;25.10;99.90;;;;;;20608534;28;20235;-72
2021/09/11 20:10:37;;;;;;;0.20;0.00;;;24.90;99.90;;;;;;20573300;28;20275;-71
2021/09/11 20:20:42;;;;;;;0.20;0.00;;;24.60;99.90;;;;;;20564688;28;21797;-72
2021/09/11 20:30:46;;;;;;;0.20;0.10;;;24.20;99.90;;;;;;20535766;28;20228;-73
2021/09/11 20:40:51;;;;;;;0.20;0.00;;;24.00;99.90;;;;;;20539217;28;20665;-70
2021/09/11 20:50:56;;;;;;;0.20;0.00;;;23.90;99.90;;;;;;20528110;28;20735;-71
2021/09/11 21:01:01;;;;;;;0.20;0.00;;;23.90;99.90;;;;;;20534568;28;20622;-72
2021/09/11 21:11:05;;;;;;;0.20;0.00;;;23.80;99.90;;;;;;20535284;28;20748;-71
2021/09/11 21:21:10;;;;;;;0.20;0.00;;;23.70;99.90;;;;;;20583428;28;20194;-74
2021/09/11 21:31:16;;;;;;;0.20;0.00;;;23.70;99.90;;;;;;20690740;28;20957;-72
2021/09/11 21:41:22;;;;;;;0.20;0.00;;;23.90;99.90;;;;;;20694586;28;20238;-72
2021/09/11 21:51:25;;;;;;;0.20;0.00;;;23.90;99.90;;;;;;20694393;28;20230;-70
2021/09/11 22:01:30;;;;;;;0.20;0.10;;;23.90;99.90;;;;;;20693669;28;20238;-72
2021/09/11 22:11:34;;;;;;;0.20;0.00;;;23.80;99.90;;;;;;20700676;28;20242;-72
2021/09/11 22:21:39;;;;;;;0.20;0.00;;;24.00;99.90;;;;;;20678744;28;20672;-73
2021/09/11 22:31:43;;;;;;;0.20;0.00;;;23.70;99.90;;;;;;20627598;28;20223;-71
2021/09/11 22:41:48;;;;;;;0.20;0.17;;;23.70;99.90;;;;;;20626454;28;20206;-72
2021/09/11 22:51:52;;;;;;;0.50;0.47;;;23.60;99.90;;;;;;20623762;28;20242;-72
2021/09/11 23:01:56;;;;;;;2.65;1.42;;;23.70;99.90;;;;;;20616636;28;20238;-72
2021/09/11 23:12:00;;;;;;;9.98;1.42;;;23.70;99.90;;;;;;20625351;28;20230;-71
2021/09/11 23:22:05;;;;;;;1.02;1.02;;;23.60;99.90;;;;;;20656011;28;20191;-72
2021/09/11 23:32:09;;;;;;;1.60;1.08;;;23.70;99.90;;;;;;20705143;28;20239;-72
2021/09/11 23:42:14;;;;;;;0.30;0.30;;;23.40;99.90;;;;;;20697660;28;20210;-71
2021/09/11 23:52:17;;;;;;;2.05;0.98;;;23.30;99.90;;;;;;20702526;28;20672;-73
